Time;durP1;ratioP1;P1;durP2;ratioP2;P2;SDS_P1;SDS_P2;PMS_P1;PMS_P2;Temp;Humidity;BMP_temperature;BMP_pressure;BME280_temperature;BME280_humidity;BME280_pressure;Samples;Min_cycle;Max_cycle;Signal;HPM_P1;HPM_P2
2021/08/29 05:01:20;;;;;;;36.97;30.83;;;;;;;18.49;100.00;94263.78;5725575;23;20024;-74
2021/08/29 05:03:45;;;;;;;47.85;34.88;;;;;;;18.41;100.00;94263.13;4969803;28;20045;-74
2021/08/29 05:06:12;;;;;;;30.70;23.77;;;;;;;18.31;100.00;94254.28;4971097;28;20403;-74
2021/08/29 05:08:37;;;;;;;26.55;23.15;;;;;;;18.42;100.00;94248.19;4936691;28;20031;-74
2021/08/29 05:11:03;;;;;;;26.70;23.48;;;;;;;18.26;100.00;94244.50;4970413;28;20042;-74
2021/08/29 05:13:28;;;;;;;24.33;21.42;;;;;;;18.24;100.00;94236.06;4969204;28;20066;-76
2021/08/29 05:15:55;;;;;;;20.45;18.08;;;;;;;18.18;100.00;94239.63;4953777;28;20038;-76
2021/08/29 05:18:20;;;;;;;17.92;15.45;;;;;;;18.13;100.00;94228.25;4970744;28;20535;-76
2021/08/29 05:20:46;;;;;;;16.42;13.98;;;;;;;18.00;100.00;94223.28;4970273;28;20018;-76
2021/08/29 05:23:11;;;;;;;14.77;13.48;;;;;;;17.98;100.00;94220.13;4953422;28;20031;-76
2021/08/29 05:25:37;;;;;;;13.88;12.43;;;;;;;17.96;100.00;94216.91;4952234;28;20479;-76
2021/08/29 05:28:03;;;;;;;15.65;14.07;;;;;;;18.01;100.00;94220.47;4971114;28;20030;-76
2021/08/29 05:30:28;;;;;;;12.82;11.35;;;;;;;18.04;100.00;94217.38;5320919;23;20818;-77
2021/08/29 05:32:53;;;;;;;12.05;11.05;;;;;;;18.08;100.00;94215.03;4952505;28;20588;-77
2021/08/29 05:35:19;;;;;;;15.43;14.02;;;;;;;18.01;100.00;94211.78;4973053;28;20022;-76
2021/08/29 05:37:44;;;;;;;14.65;13.40;;;;;;;17.89;100.00;94219.69;4970453;28;20081;-77
2021/08/29 05:40:10;;;;;;;12.18;11.20;;;;;;;18.16;100.00;94227.78;4941603;28;20033;-76
2021/08/29 05:42:36;;;;;;;12.95;11.95;;;;;;;18.50;100.00;94231.28;4956062;28;20034;-76
2021/08/29 05:45:01;;;;;;;12.32;11.10;;;;;;;18.75;100.00;94236.97;4990706;28;20030;-76
2021/08/29 05:47:27;;;;;;;9.35;8.55;;;;;;;18.70;100.00;94226.38;4940934;28;20038;-76
2021/08/29 05:49:52;;;;;;;11.02;9.43;;;;;;;18.58;100.00;94231.69;4989713;28;20030;-75
2021/08/29 05:52:18;;;;;;;10.70;9.82;;;;;;;18.53;100.00;94234.22;4973382;28;20034;-75
2021/08/29 05:54:43;;;;;;;11.25;10.15;;;;;;;18.39;100.00;94223.22;4971722;28;20041;-75
2021/08/29 05:57:09;;;;;;;12.23;11.20;;;;;;;18.36;100.00;94218.47;4957222;28;20339;-75
2021/08/29 05:59:34;;;;;;;13.65;12.40;;;;;;;18.39;100.00;94228.47;4955494;28;20030;-76
2021/08/29 06:01:59;;;;;;;13.48;12.32;;;;;;;18.38;100.00;94226.06;4972976;28;20026;-75
2021/08/29 06:04:25;;;;;;;14.52;13.23;;;;;;;18.56;100.00;94215.38;4989757;28;20026;-75
2021/08/29 06:06:50;;;;;;;13.27;12.13;;;;;;;18.62;100.00;94218.91;4956845;28;20109;-74
2021/08/29 06:09:16;;;;;;;15.80;14.50;;;;;;;18.43;100.00;94223.53;4990431;28;20026;-75
2021/08/29 06:11:41;;;;;;;15.75;14.43;;;;;;;18.43;100.00;94213.03;4989136;28;20101;-75
2021/08/29 06:14:07;;;;;;;16.55;15.00;;;;;;;18.39;100.00;94209.31;4972775;28;20034;-75
2021/08/29 06:16:33;;;;;;;16.48;14.88;;;;;;;18.56;100.00;94212.75;4971737;28;20038;-75
2021/08/29 06:18:58;;;;;;;15.57;14.27;;;;;;;18.64;100.00;94222.88;4957527;28;20027;-74
2021/08/29 06:21:24;;;;;;;17.80;16.33;;;;;;;18.23;100.00;94186.50;4955331;28;20105;-75
2021/08/29 06:23:49;;;;;;;20.45;18.55;;;;;;;18.48;100.00;94218.38;4972493;28;20037;-76
2021/08/29 06:26:15;;;;;;;19.25;17.65;;;;;;;18.84;100.00;94211.91;4956229;28;20488;-75
2021/08/29 06:28:40;;;;;;;17.40;15.60;;;;;;;18.77;100.00;94208.66;4971516;28;20026;-75
2021/08/29 06:31:06;;;;;;;16.60;15.40;;;;;;;18.02;100.00;94208.13;4960893;28;20054;-75
2021/08/29 06:33:31;;;;;;;15.43;14.13;;;;;;;19.45;98.65;94206.50;4971016;28;20030;-75
2021/08/29 06:35:56;;;;;;;13.85;12.75;;;;;;;19.52;96.75;94200.28;4956220;28;20034;-75
2021/08/29 06:38:22;;;;;;;15.85;14.27;;;;;;;19.23;98.07;94215.38;4971342;28;20404;-75
2021/08/29 06:40:48;;;;;;;16.42;14.88;;;;;;;19.06;97.58;94206.72;4956122;28;20026;-75
2021/08/29 06:43:14;;;;;;;16.58;15.18;;;;;;;19.19;97.72;94174.84;4971745;28;20023;-75
2021/08/29 06:45:40;;;;;;;14.77;13.57;;;;;;;19.43;96.59;94184.91;4955976;28;20014;-75
2021/08/29 06:48:05;;;;;;;14.93;13.63;;;;;;;19.60;95.65;94171.72;4972380;28;20122;-75
2021/08/29 06:50:31;;;;;;;13.90;12.73;;;;;;;19.91;90.85;94165.75;4971168;28;20034;-75
2021/08/29 06:52:56;;;;;;;15.60;14.40;;;;;;;20.06;91.44;94174.84;4972318;28;20502;-74
2021/08/29 06:55:21;;;;;;;14.23;12.90;;;;;;;20.57;90.92;94169.03;4971033;28;20026;-75
2021/08/29 06:57:47;;;;;;;13.45;12.43;;;;;;;20.81;89.84;94170.25;4971798;28;20081;-75
2021/08/29 07:00:13;;;;;;;15.52;14.25;;;;;;;21.14;88.01;94163.09;4970930;28;20031;-75
2021/08/29 07:02:38;;;;;;;14.45;13.20;;;;;;;20.70;92.01;94170.44;4972093;28;20530;-75
2021/08/29 07:05:04;;;;;;;14.25;12.98;;;;;;;20.57;90.49;94178.75;4971735;28;20022;-75
2021/08/29 07:07:31;;;;;;;13.30;12.18;;;;;;;20.53;90.59;94170.56;4955627;28;20029;-75
2021/08/29 07:09:57;;;;;;;12.82;11.82;;;;;;;20.54;90.72;94171.34;4956430;28;20398;-75
2021/08/29 07:12:22;;;;;;;12.75;11.75;;;;;;;20.28;89.22;94167.72;4954869;28;20026;-75
2021/08/29 07:14:48;;;;;;;10.45;9.70;;;;;;;20.60;88.80;94167.72;4970952;28;20033;-75
2021/08/29 07:17:14;;;;;;;11.27;10.48;;;;;;;20.90;89.33;94170.59;4988208;28;20034;-75
2021/08/29 07:19:40;;;;;;;11.73;10.82;;;;;;;20.74;88.27;94156.50;4988998;28;20407;-75
2021/08/29 07:22:05;;;;;;;10.80;10.00;;;;;;;20.66;88.81;94156.19;4955135;28;20023;-75
2021/08/29 07:24:31;;;;;;;13.18;12.23;;;;;;;20.49;89.47;94162.38;4971658;28;20030;-75
2021/08/29 07:26:56;;;;;;;11.32;10.52;;;;;;;20.53;89.00;94162.66;4988542;28;20031;-75
2021/08/29 07:29:22;;;;;;;10.68;9.90;;;;;;;21.19;89.55;94168.41;4970577;28;20034;-75
2021/08/29 07:31:47;;;;;;;12.73;11.73;;;;;;;21.34;88.70;94169.28;4968229;28;20209;-75
2021/08/29 07:34:13;;;;;;;15.90;14.52;;;;;;;21.19;89.12;94171.06;4967162;28;20034;-76
2021/08/29 07:36:38;;;;;;;14.18;13.18;;;;;;;21.29;88.01;94163.97;4968253;28;20035;-76
2021/08/29 07:39:03;;;;;;;13.88;12.73;;;;;;;21.67;85.83;94167.31;4968743;28;20035;-75
2021/08/29 07:41:29;;;;;;;12.93;11.82;;;;;;;22.96;83.62;94167.75;4968320;28;20081;-75
2021/08/29 07:43:54;;;;;;;10.20;9.43;;;;;;;22.61;82.10;94183.59;4951655;28;20019;-75
2021/08/29 07:46:24;;;;;;;11.27;10.48;;;;;;;22.40;82.84;94180.16;4951968;28;20030;-75
2021/08/29 07:48:50;;;;;;;10.18;9.40;;;;;;;22.51;82.55;94186.22;4968172;28;20031;-78
2021/08/29 07:51:15;;;;;;;9.50;8.70;;;;;;;22.77;81.12;94179.13;4968245;28;20101;-76
2021/08/29 07:53:41;;;;;;;10.25;9.38;;;;;;;21.89;82.48;94175.84;4968588;28;20027;-75
2021/08/29 07:56:06;;;;;;;13.43;12.23;;;;;;;21.26;86.05;94185.56;4967042;28;20562;-77
2021/08/29 07:58:31;;;;;;;11.98;10.98;;;;;;;20.76;88.29;94186.00;4968378;28;20479;-78
2021/08/29 08:00:57;;;;;;;10.13;9.40;;;;;;;20.61;89.44;94177.22;4950948;28;20042;-76
2021/08/29 08:03:22;;;;;;;9.55;8.85;;;;;;;20.36;88.44;94160.16;4968227;28;20030;-75
2021/08/29 08:05:48;;;;;;;9.50;8.80;;;;;;;20.22;89.13;94153.72;4951596;28;20030;-75
2021/08/29 08:08:13;;;;;;;9.68;8.98;;;;;;;20.36;89.17;94162.78;4967451;28;20027;-75
2021/08/29 08:10:40;;;;;;;9.30;8.68;;;;;;;20.55;88.86;94163.19;4969298;28;20472;-75
2021/08/29 08:13:05;;;;;;;10.48;9.77;;;;;;;20.86;85.97;94156.31;4968417;28;20114;-75
2021/08/29 08:15:31;;;;;;;8.45;7.85;;;;;;;21.97;81.72;94168.22;4968323;28;20110;-75
2021/08/29 08:17:56;;;;;;;8.68;8.18;;;;;;;22.14;80.96;94169.84;4950223;28;20031;-75
2021/08/29 08:20:22;;;;;;;8.20;7.70;;;;;;;22.51;81.18;94151.91;4969378;28;20738;-75
2021/08/29 08:22:48;;;;;;;8.40;7.63;;;;;;;23.67;77.83;94153.56;4968751;28;20038;-75
2021/08/29 08:25:14;;;;;;;7.88;7.38;;;;;;;23.30;77.11;94159.25;4935485;28;20397;-75
2021/08/29 08:27:39;;;;;;;9.32;8.65;;;;;;;22.64;79.60;94163.78;4967992;28;20026;-78
2021/08/29 08:30:06;;;;;;;8.98;8.05;;;;;;;22.30;81.90;94159.03;4951566;28;20054;-76
2021/08/29 08:32:31;;;;;;;9.77;8.98;;;;;;;21.59;82.46;94163.31;4971625;28;20030;-75
2021/08/29 08:34:57;;;;;;;9.65;9.05;;;;;;;21.02;84.98;94152.75;4969829;28;20034;-75
2021/08/29 08:37:22;;;;;;;9.05;8.35;;;;;;;21.66;82.70;94152.53;4954943;28;20042;-76
2021/08/29 08:39:48;;;;;;;9.65;8.95;;;;;;;21.71;84.67;94155.97;4969873;28;20027;-77
2021/08/29 08:42:14;;;;;;;12.35;11.35;;;;;;;20.83;86.75;94160.28;4971073;28;20412;-77
2021/08/29 08:44:39;;;;;;;12.75;11.80;;;;;;;20.68;87.83;94152.25;4970848;28;20037;-75
2021/08/29 08:47:06;;;;;;;12.63;11.73;;;;;;;21.00;87.47;94154.81;4972638;28;20054;-76
2021/08/29 08:49:32;;;;;;;12.20;11.25;;;;;;;21.10;86.72;94149.66;4942384;28;20157;-78
2021/08/29 08:51:59;;;;;;;10.93;10.13;;;;;;;21.34;85.19;94148.22;4956948;28;20026;-75
2021/08/29 08:54:25;;;;;;;11.10;10.30;;;;;;;21.51;84.21;94150.66;4957915;28;20597;-75
2021/08/29 08:56:51;;;;;;;9.48;8.88;;;;;;;21.23;83.21;94154.47;4973288;28;20026;-75
2021/08/29 08:59:17;;;;;;;9.27;8.57;;;;;;;21.45;84.11;94157.72;4974424;28;20114;-76
2021/08/29 09:01:42;;;;;;;12.40;11.18;;;;;;;21.59;83.20;94154.63;4973115;28;20096;-75
2021/08/29 09:04:08;;;;;;;8.75;8.13;;;;;;;21.60;83.15;94150.94;4972743;28;20536;-76
2021/08/29 09:06:33;;;;;;;10.15;9.35;;;;;;;21.74;82.82;94149.38;4957825;28;20038;-76
2021/08/29 09:09:01;;;;;;;6.65;6.13;;;;;;;21.71;81.96;94160.44;4957012;28;20033;-75
2021/08/29 09:11:27;;;;;;;6.03;5.63;;;;;;;21.69;83.29;94159.94;4958642;28;20061;-76
2021/08/29 09:13:53;;;;;;;6.13;5.72;;;;;;;21.77;83.03;94156.81;4957255;28;20053;-75
2021/08/29 09:16:20;;;;;;;6.85;6.25;;;;;;;21.64;84.50;94162.56;4973805;28;20130;-75
2021/08/29 09:18:46;;;;;;;5.80;5.40;;;;;;;21.56;84.15;94153.28;4972798;28;20042;-77
2021/08/29 09:21:20;;;;;;;6.20;5.80;;;;;;;21.47;85.67;94157.47;4973632;28;20022;-75
2021/08/29 09:23:46;;;;;;;9.90;9.20;;;;;;;21.35;86.66;94149.00;4991312;28;20482;-75
2021/08/29 09:26:11;;;;;;;10.43;9.60;;;;;;;21.37;86.40;94150.31;4972278;28;20101;-75
2021/08/29 09:28:38;;;;;;;8.45;7.75;;;;;;;21.15;86.13;94146.25;4957991;28;20026;-75
2021/08/29 09:31:03;;;;;;;7.93;7.43;;;;;;;21.46;84.39;94147.97;4956063;28;20057;-76
2021/08/29 09:33:32;;;;;;;7.82;7.32;;;;;;;21.50;84.71;94147.22;4973834;28;20031;-80
2021/08/29 09:35:58;;;;;;;8.38;7.78;;;;;;;21.59;84.76;94141.44;4972598;28;20109;-75
2021/08/29 09:38:23;;;;;;;9.32;8.20;;;;;;;21.31;83.62;94142.66;4973587;28;20484;-75
2021/08/29 09:40:49;;;;;;;8.48;7.93;;;;;;;21.25;85.19;94141.84;4957002;28;20027;-76
2021/08/29 09:43:15;;;;;;;9.05;8.45;;;;;;;21.67;83.28;94139.13;4956787;28;20387;-75
2021/08/29 09:45:44;;;;;;;10.10;9.40;;;;;;;21.57;84.04;94138.28;4956918;28;20444;-75
2021/08/29 09:48:15;;;;;;;;;;;;;;;21.65;83.17;94140.41;4940930;28;20609;-75
2021/08/29 09:50:42;;;;;;;9.52;8.82;;;;;;;21.73;82.72;94139.91;4972973;28;19918;-75
2021/08/29 09:53:15;;;;;;;8.55;8.02;;;;;;;22.18;81.98;94139.25;4956272;28;20045;-77
2021/08/29 09:55:44;;;;;;;10.10;9.43;;;;;;;21.81;81.15;94132.28;4941687;28;20065;-76
2021/08/29 09:58:32;;;;;;;8.30;7.70;;;;;;;22.12;81.92;94135.81;4972029;28;20034;-75
2021/08/29 10:01:08;;;;;;;8.18;7.57;;;;;;;21.89;83.24;94136.28;4972334;28;20405;-77
2021/08/29 10:03:37;;;;;;;7.30;6.70;;;;;;;21.86;82.42;94136.78;4991268;28;20030;-76
2021/08/29 10:06:20;;;;;;;8.32;7.72;;;;;;;22.32;80.56;94129.72;4956527;28;20516;-75
2021/08/29 10:08:47;;;;;;;9.15;8.52;;;;;;;22.77;79.80;94136.88;4958164;28;20034;-75
2021/08/29 10:11:13;;;;;;;10.25;8.85;;;;;;;22.67;79.34;94136.91;4972090;28;20081;-75
2021/08/29 10:13:39;;;;;;;7.45;6.93;;;;;;;22.46;81.15;94141.38;4956424;28;20488;-75
2021/08/29 10:16:05;;;;;;;5.68;5.38;;;;;;;23.29;76.15;94142.59;4957015;28;20508;-77
2021/08/29 10:18:31;;;;;;;6.25;5.90;;;;;;;23.18;76.60;94127.84;4939592;28;20500;-75
2021/08/29 10:20:58;;;;;;;5.90;5.50;;;;;;;22.72;76.15;94129.78;4940967;28;20042;-74
2021/08/29 10:23:23;;;;;;;6.25;5.85;;;;;;;22.38;78.75;94116.28;4939632;28;20029;-78
2021/08/29 10:25:50;;;;;;;7.43;6.95;;;;;;;21.73;79.43;94111.72;4956719;28;20026;-76
2021/08/29 10:28:16;;;;;;;7.05;6.45;;;;;;;22.46;81.74;94121.03;4940190;28;20054;-76
2021/08/29 10:30:41;;;;;;;6.85;6.25;;;;;;;22.47;81.07;94127.91;4971533;28;20539;-76
2021/08/29 10:33:08;;;;;;;7.55;7.05;;;;;;;22.51;81.07;94128.94;4940640;28;20042;-75
2021/08/29 10:35:34;;;;;;;10.63;9.93;;;;;;;22.39;80.96;94125.00;4955157;28;20046;-76
2021/08/29 10:37:59;;;;;;;12.43;11.45;;;;;;;22.66;79.56;94120.28;4956959;28;20496;-78
2021/08/29 10:40:25;;;;;;;10.50;9.75;;;;;;;22.85;78.91;94125.78;4970749;28;20038;-75
2021/08/29 10:42:50;;;;;;;8.85;8.25;;;;;;;22.60;80.54;94130.00;4956465;28;20105;-76
2021/08/29 10:45:16;;;;;;;9.40;8.80;;;;;;;22.56;80.83;94128.16;4955269;28;20377;-74
2021/08/29 10:47:43;;;;;;;8.40;7.90;;;;;;;23.78;75.06;94110.16;4972349;28;20041;-74
2021/08/29 10:50:09;;;;;;;8.63;8.02;;;;;;;24.10;74.56;94094.63;4955502;28;20551;-75
2021/08/29 10:52:36;;;;;;;7.35;6.85;;;;;;;24.25;74.08;94104.31;4955381;28;20050;-75
2021/08/29 10:55:10;;;;;;;7.85;7.25;;;;;;;24.54;74.07;94099.84;4940484;28;20125;-78
2021/08/29 10:57:39;;;;;;;11.23;10.32;;;;;;;23.60;75.36;94112.34;4954860;28;20515;-77
2021/08/29 11:00:26;;;;;;;11.70;10.90;;;;;;;23.99;75.65;94101.81;4972231;28;20030;-75
2021/08/29 11:02:52;;;;;;;31.55;28.13;;;;;;;23.66;76.00;94099.13;4989048;28;20026;-75
2021/08/29 11:05:29;;;;;;;15.07;13.68;;;;;;;23.18;77.94;94100.63;4988454;28;20512;-78
2021/08/29 11:07:56;;;;;;;17.95;15.38;;;;;;;23.10;77.33;94112.53;4989636;28;20502;-76
2021/08/29 11:10:37;;;;;;;13.15;11.85;;;;;;;23.36;76.69;94100.81;4953862;28;20397;-75
2021/08/29 11:13:31;;;;;;;22.60;16.85;;;;;;;23.42;76.06;94105.03;4989563;28;20038;-74
2021/08/29 11:16:11;;;;;;;11.13;10.27;;;;;;;23.58;75.56;94105.75;4988885;28;20030;-77
2021/08/29 11:18:58;;;;;;;14.77;12.40;;;;;;;23.44;76.81;94100.25;4988281;28;20030;-77
2021/08/29 11:21:24;;;;;;;10.82;9.82;;;;;;;23.35;77.57;94096.56;4988868;28;20465;-74
2021/08/29 11:23:50;;;;;;;9.23;8.52;;;;;;;23.18;77.65;94090.84;4954624;28;20026;-75
2021/08/29 11:26:32;;;;;;;8.10;7.38;;;;;;;23.35;77.35;94095.78;4989308;28;20029;-76
2021/08/29 11:28:57;;;;;;;10.70;9.73;;;;;;;23.08;78.26;94112.00;4971577;28;20038;-77
2021/08/29 11:31:51;;;;;;;9.27;8.48;;;;;;;23.15;77.45;94107.22;4970061;28;20543;-74
2021/08/29 11:34:17;;;;;;;8.70;8.00;;;;;;;23.06;78.18;94100.91;4969471;28;20030;-78
2021/08/29 11:36:42;;;;;;;8.95;7.93;;;;;;;23.42;76.73;94086.53;4987131;28;20037;-75
2021/08/29 11:39:29;;;;;;;7.72;7.13;;;;;;;23.88;76.25;94081.81;4970431;28;20476;-75
2021/08/29 11:42:14;;;;;;;6.68;6.07;;;;;;;23.83;77.31;94092.41;4987733;28;20411;-75
2021/08/29 11:44:39;;;;;;;7.00;6.50;;;;;;;24.38;74.18;94088.59;4969366;28;20112;-77
2021/08/29 11:47:05;;;;;;;5.55;5.05;;;;;;;24.87;71.17;94079.72;4987137;28;20065;-77
2021/08/29 11:49:31;;;;;;;5.70;5.30;;;;;;;25.05;71.53;94081.63;4953180;28;20089;-75
2021/08/29 11:51:56;;;;;;;8.15;7.55;;;;;;;25.02;70.63;94087.50;4953759;28;20030;-76
2021/08/29 11:54:22;;;;;;;6.35;5.75;;;;;;;25.44;68.92;94092.84;4986542;28;20041;-77
2021/08/29 11:56:47;;;;;;;8.52;7.32;;;;;;;24.90;71.15;94076.50;4987620;28;20029;-80
2021/08/29 11:59:14;;;;;;;8.10;7.32;;;;;;;24.92;70.86;94077.00;4987090;28;20026;-75
2021/08/29 12:01:40;;;;;;;8.93;8.13;;;;;;;25.04;69.36;94072.13;4953313;28;20030;-74
2021/08/29 12:04:06;;;;;;;7.50;6.90;;;;;;;24.79;71.81;94072.34;4953534;28;20076;-74
2021/08/29 12:06:31;;;;;;;8.45;7.65;;;;;;;24.49;72.69;94071.56;4952985;28;20037;-79
2021/08/29 12:09:08;;;;;;;8.93;8.13;;;;;;;24.57;71.73;94073.59;4987173;28;20093;-76
2021/08/29 12:11:36;;;;;;;9.35;8.45;;;;;;;24.81;72.34;94078.16;4969302;28;20041;-76
2021/08/29 12:14:22;;;;;;;11.25;10.25;;;;;;;24.85;72.77;94069.38;4938688;28;20030;-75
2021/08/29 12:16:58;;;;;;;9.07;8.45;;;;;;;24.90;72.28;94058.75;4954395;28;20035;-75
2021/08/29 12:19:42;;;;;;;11.70;10.65;;;;;;;24.87;72.27;94055.84;4953732;28;20566;-74
2021/08/29 12:22:09;;;;;;;9.38;8.68;;;;;;;24.49;71.55;94046.94;4956580;28;20077;-74
2021/08/29 12:24:41;;;;;;;8.75;7.88;;;;;;;24.47;73.77;94036.59;4956890;28;20129;-76
2021/08/29 12:27:19;;;;;;;8.25;7.60;;;;;;;24.50;72.17;94029.97;4957421;28;20022;-75
2021/08/29 12:29:49;;;;;;;7.90;7.25;;;;;;;24.46;72.38;94031.63;4990398;28;20035;-74
2021/08/29 12:32:26;;;;;;;7.82;7.22;;;;;;;24.51;72.40;94029.69;4956936;28;20050;-75
2021/08/29 12:35:10;;;;;;;7.38;6.88;;;;;;;24.29;72.13;94031.22;4957689;28;20038;-78
2021/08/29 12:37:44;;;;;;;7.13;6.63;;;;;;;24.69;71.05;94035.38;4957662;28;20488;-77
2021/08/29 12:40:12;;;;;;;6.63;6.10;;;;;;;24.91;69.93;94040.97;4957346;28;20042;-74
2021/08/29 12:42:38;;;;;;;7.60;6.90;;;;;;;24.57;70.78;94038.38;4973151;28;20022;-77
2021/08/29 12:45:09;;;;;;;7.13;6.43;;;;;;;24.84;71.03;94027.28;4956364;28;20100;-79
2021/08/29 12:47:34;;;;;;;7.22;6.53;;;;;;;25.41;68.30;94021.81;4973310;28;20053;-74
2021/08/29 12:50:01;;;;;;;8.77;8.10;;;;;;;25.31;68.19;94024.59;4972506;28;20057;-78
2021/08/29 12:52:32;;;;;;;9.80;8.25;;;;;;;24.80;71.41;94026.22;4957017;28;20037;-75
2021/08/29 12:54:57;;;;;;;7.43;6.80;;;;;;;24.57;71.76;94028.56;4956204;28;20038;-77
2021/08/29 12:57:26;;;;;;;7.35;6.65;;;;;;;25.20;70.27;94031.09;4940851;28;20038;-76
2021/08/29 12:59:56;;;;;;;9.15;8.45;;;;;;;25.52;69.63;94030.44;4972091;28;20047;-78
2021/08/29 13:02:22;;;;;;;8.07;7.50;;;;;;;25.42;70.06;94020.75;4957366;28;20066;-77
2021/08/29 13:04:49;;;;;;;8.63;7.95;;;;;;;25.41;70.21;94011.19;4956052;28;20023;-75
2021/08/29 13:07:15;;;;;;;8.40;7.82;;;;;;;24.97;71.35;94018.66;4972713;28;20486;-75
2021/08/29 13:09:40;;;;;;;9.55;8.70;;;;;;;24.81;72.33;94011.91;4956144;28;20034;-77
2021/08/29 13:12:06;;;;;;;9.18;8.48;;;;;;;25.19;70.11;94013.59;4956030;28;20034;-76
2021/08/29 13:14:37;;;;;;;9.00;8.40;;;;;;;25.29;69.61;94007.38;4956549;28;20400;-76
2021/08/29 13:17:32;;;;;;;11.32;10.32;;;;;;;24.49;71.51;94009.88;4956037;28;20054;-79
2021/08/29 13:20:07;;;;;;;12.23;11.23;;;;;;;24.42;73.78;94020.00;4972363;28;20038;-76
2021/08/29 13:22:34;;;;;;;13.23;11.93;;;;;;;24.64;72.73;94017.66;4956147;28;20035;-74
2021/08/29 13:25:15;;;;;;;11.85;10.73;;;;;;;25.08;70.00;94020.09;4971303;28;20034;-74
2021/08/29 13:27:42;;;;;;;12.13;11.05;;;;;;;24.58;72.50;94022.22;4972341;28;20053;-76
2021/08/29 13:30:08;;;;;;;12.75;11.73;;;;;;;24.12;74.36;94021.03;4971301;28;20067;-78
2021/08/29 13:32:34;;;;;;;11.65;10.77;;;;;;;23.97;73.23;94000.75;4955105;28;20022;-74
2021/08/29 13:35:13;;;;;;;10.38;9.50;;;;;;;23.49;72.68;93996.34;4955245;28;20109;-74
2021/08/29 13:37:50;;;;;;;11.23;10.07;;;;;;;23.90;73.25;94007.44;4939986;28;20117;-74
2021/08/29 13:40:20;;;;;;;13.00;11.60;;;;;;;23.91;75.94;94019.59;4956409;28;20022;-77
2021/08/29 13:42:53;;;;;;;12.18;11.20;;;;;;;24.04;75.57;94017.13;4955548;28;20030;-75
2021/08/29 13:45:34;;;;;;;13.32;12.32;;;;;;;24.25;74.91;94016.97;4971650;28;20478;-76
2021/08/29 13:48:00;;;;;;;13.48;12.18;;;;;;;24.48;73.60;94002.97;4971294;28;20058;-75
2021/08/29 13:50:26;;;;;;;13.93;12.75;;;;;;;24.30;73.71;93998.41;4939296;28;20037;-75
2021/08/29 13:53:09;;;;;;;14.43;13.10;;;;;;;23.87;75.29;94010.63;4971690;28;20038;-80
2021/08/29 13:55:36;;;;;;;14.20;12.77;;;;;;;24.64;74.48;94012.34;4971529;28;20036;-74
2021/08/29 13:58:02;;;;;;;13.55;12.20;;;;;;;24.31;73.61;94000.75;4955607;28;20082;-74
2021/08/29 14:00:28;;;;;;;11.88;10.85;;;;;;;24.28;74.43;94006.59;4971340;28;20394;-75
2021/08/29 14:02:54;;;;;;;13.07;12.05;;;;;;;24.10;73.73;93999.34;4971332;28;20038;-76
2021/08/29 14:05:19;;;;;;;14.20;12.88;;;;;;;23.80;75.49;93991.63;4971290;28;20664;-74
2021/08/29 14:07:45;;;;;;;14.13;12.88;;;;;;;23.48;76.10;93984.19;4971271;28;20026;-74
2021/08/29 14:10:11;;;;;;;13.48;12.43;;;;;;;23.73;76.63;93991.16;4971278;28;20065;-74
2021/08/29 14:12:36;;;;;;;14.75;13.55;;;;;;;23.55;76.46;93996.03;4938810;28;20518;-74
2021/08/29 14:15:04;;;;;;;14.77;13.25;;;;;;;23.77;78.15;93995.63;4971116;28;20026;-75
2021/08/29 14:17:30;;;;;;;13.65;12.45;;;;;;;24.04;77.62;93989.88;4955575;28;20085;-74
2021/08/29 14:19:55;;;;;;;13.77;12.68;;;;;;;24.08;76.76;93983.72;4970918;28;20027;-74
2021/08/29 14:22:20;;;;;;;13.48;12.35;;;;;;;23.77;78.60;93984.25;4971196;28;20022;-74
2021/08/29 14:24:46;;;;;;;15.77;14.57;;;;;;;23.56;78.58;93991.53;4970868;28;20038;-75
2021/08/29 14:27:11;;;;;;;14.43;13.30;;;;;;;23.74;78.52;93993.53;4970539;28;20037;-73
2021/08/29 14:29:37;;;;;;;14.57;13.30;;;;;;;23.54;79.64;93993.66;4970989;28;20033;-74
2021/08/29 14:32:02;;;;;;;14.75;13.40;;;;;;;23.49;80.19;93991.06;4954634;28;20100;-74
2021/08/29 14:34:28;;;;;;;15.50;14.13;;;;;;;23.40;80.26;93990.06;4987981;28;20162;-74
2021/08/29 14:36:54;;;;;;;15.68;14.30;;;;;;;23.38;81.24;94005.34;4939178;28;20030;-75
2021/08/29 14:39:19;;;;;;;14.98;13.68;;;;;;;23.32;81.52;94007.25;4970188;28;20508;-74
2021/08/29 14:41:45;;;;;;;16.42;14.30;;;;;;;23.17;82.63;93996.75;4970675;28;20035;-75
2021/08/29 14:44:10;;;;;;;14.73;13.63;;;;;;;23.43;81.17;93990.31;4970314;28;20033;-76
2021/08/29 14:46:36;;;;;;;16.00;14.50;;;;;;;23.42;80.49;93988.72;4970606;28;20023;-75
2021/08/29 14:49:01;;;;;;;17.30;15.85;;;;;;;23.38;80.76;94000.06;4970441;28;20401;-75
2021/08/29 14:51:26;;;;;;;18.55;16.80;;;;;;;23.41;81.22;94000.34;4970340;28;20038;-74
2021/08/29 14:53:52;;;;;;;17.15;15.75;;;;;;;23.38;81.09;93997.41;4954943;28;20022;-74
2021/08/29 14:56:17;;;;;;;14.45;13.23;;;;;;;23.13;80.05;93985.16;4970063;28;20026;-74
2021/08/29 14:58:43;;;;;;;15.50;14.07;;;;;;;22.91;81.13;93984.72;4969936;28;20108;-75
2021/08/29 15:01:08;;;;;;;16.02;14.48;;;;;;;22.92;81.00;93988.94;4953895;28;20026;-75
2021/08/29 15:03:34;;;;;;;16.30;14.80;;;;;;;22.98;82.55;93995.78;4987933;28;20030;-74
2021/08/29 15:05:59;;;;;;;15.35;14.00;;;;;;;23.12;82.46;93996.00;4970164;28;20041;-74
2021/08/29 15:08:25;;;;;;;15.05;13.85;;;;;;;22.96;83.06;93995.25;4970197;28;20468;-74
2021/08/29 15:10:50;;;;;;;16.02;14.57;;;;;;;22.94;82.97;94005.31;4970232;28;20037;-74
2021/08/29 15:13:16;;;;;;;15.50;14.20;;;;;;;22.87;83.72;94004.81;4969912;28;20026;-75
2021/08/29 15:15:41;;;;;;;15.45;14.25;;;;;;;22.88;83.42;94009.03;4970085;28;20034;-74
2021/08/29 15:18:07;;;;;;;15.05;13.88;;;;;;;23.14;82.17;94007.88;4987513;28;20033;-74
2021/08/29 15:20:33;;;;;;;15.70;14.30;;;;;;;23.17;82.80;94012.63;4970472;28;20403;-74
2021/08/29 15:23:00;;;;;;;15.18;13.88;;;;;;;23.04;81.67;94015.84;4970073;28;20032;-75
2021/08/29 15:25:26;;;;;;;8.98;8.38;;;;;;;22.78;79.92;94020.41;4986846;28;20492;-74
2021/08/29 15:27:51;;;;;;;7.53;7.03;;;;;;;22.81;81.26;94016.44;4987551;28;20141;-74
2021/08/29 15:30:17;;;;;;;7.07;6.40;;;;;;;22.74;80.42;94008.00;4953421;28;20519;-74
2021/08/29 15:32:42;;;;;;;7.18;6.57;;;;;;;22.82;79.90;94002.19;4970207;28;20523;-74
2021/08/29 15:35:11;;;;;;;6.25;5.65;;;;;;;22.77;79.12;93999.56;4953644;28;20034;-74
2021/08/29 15:37:36;;;;;;;5.35;4.95;;;;;;;22.34;80.15;94004.41;4954735;28;20471;-74
2021/08/29 15:40:06;;;;;;;6.75;6.13;;;;;;;22.24;80.91;93999.13;4986862;28;20073;-74
2021/08/29 15:42:31;;;;;;;;;;;;;;;22.32;80.16;94010.97;4954433;28;20324;-74
2021/08/29 15:44:57;;;;;;;7.00;6.40;;;;;;;22.24;80.67;94007.06;4969490;28;20016;-75
2021/08/29 15:47:22;;;;;;;6.22;5.72;;;;;;;22.16;81.14;94007.56;4937339;28;20037;-74
2021/08/29 15:49:49;;;;;;;6.68;6.07;;;;;;;22.20;81.13;94011.28;4953768;28;20045;-74
2021/08/29 15:52:15;;;;;;;6.93;6.32;;;;;;;22.19;81.32;94011.53;4969819;28;20030;-74
2021/08/29 15:54:40;;;;;;;5.55;5.05;;;;;;;22.24;81.39;94011.53;4970006;28;20057;-74
2021/08/29 15:57:06;;;;;;;5.78;5.38;;;;;;;22.19;80.19;94007.03;4989817;28;20093;-75
2021/08/29 15:59:32;;;;;;;6.28;5.78;;;;;;;22.19;80.90;93999.13;4990415;28;20081;-74
2021/08/29 16:01:58;;;;;;;7.57;6.68;;;;;;;22.00;82.02;93996.25;4973269;28;20113;-74
2021/08/29 16:04:24;;;;;;;6.78;6.25;;;;;;;21.98;81.82;93982.53;4973280;28;20602;-74
2021/08/29 16:06:49;;;;;;;6.82;6.18;;;;;;;21.91;81.46;93981.22;4974125;28;20014;-74
2021/08/29 16:09:16;;;;;;;5.75;5.35;;;;;;;21.96;81.69;93986.50;4973103;28;20031;-75
2021/08/29 16:11:42;;;;;;;7.10;5.63;;;;;;;21.77;80.93;93985.44;4974014;28;20385;-75
2021/08/29 16:14:08;;;;;;;6.13;5.60;;;;;;;21.74;81.77;93985.91;4957078;28;20022;-74
2021/08/29 16:16:33;;;;;;;6.80;6.15;;;;;;;21.71;82.24;93994.34;4973228;28;20076;-74
2021/08/29 16:18:58;;;;;;;6.53;5.82;;;;;;;21.58;82.00;93987.00;4941356;28;20404;-74
2021/08/29 16:21:24;;;;;;;6.80;6.15;;;;;;;21.33;81.94;93996.44;4940879;28;20030;-74
2021/08/29 16:23:49;;;;;;;6.47;6.07;;;;;;;21.11;82.17;93985.31;4972721;28;20113;-75
2021/08/29 16:26:16;;;;;;;6.93;5.72;;;;;;;20.95;83.38;93988.91;4972890;28;20033;-75